createdAt,value
2019-03-22T00:01:56.432Z,65.86
2019-03-22T00:04:27.792Z,65.93
2019-03-22T00:06:59.138Z,66.11
2019-03-22T00:09:30.643Z,66.48
2019-03-22T00:12:04.197Z,66.59
2019-03-22T00:14:37.022Z,67.04
2019-03-22T00:17:08.630Z,67.23
2019-03-22T00:19:39.905Z,67.21
2019-03-22T00:22:11.227Z,67.23
2019-03-22T00:24:42.416Z,67.06
2019-03-22T00:27:16.602Z,67.21
2019-03-22T00:29:47.145Z,67.18
2019-03-22T00:32:18.297Z,67.18
2019-03-22T00:34:49.817Z,67.31
2019-03-22T00:37:20.966Z,67.56
2019-03-22T00:39:52.332Z,67.79
2019-03-22T00:42:23.676Z,67.75
2019-03-22T00:44:55.505Z,67.61
2019-03-22T00:47:27.801Z,67.97
2019-03-22T00:50:01.138Z,68.51
2019-03-22T00:52:32.506Z,68.97
2019-03-22T00:55:03.790Z,69.31
2019-03-22T00:57:35.227Z,69.60
2019-03-22T01:00:10.192Z,69.51
2019-03-22T01:02:41.283Z,69.72
2019-03-22T01:05:12.446Z,69.63
2019-03-22T01:07:43.524Z,69.60
2019-03-22T01:10:15.067Z,69.39
2019-03-22T01:12:46.164Z,69.48
2019-03-22T01:15:17.350Z,68.78
2019-03-22T01:17:48.803Z,68.72
2019-03-22T01:20:20.360Z,68.43
2019-03-22T01:22:51.807Z,68.16
2019-03-22T01:25:23.377Z,68.14
2019-03-22T01:27:54.460Z,68.17
2019-03-22T01:30:25.700Z,68.03
2019-03-22T01:32:56.905Z,68.15
2019-03-22T01:35:28.154Z,68.38
2019-03-22T01:37:59.353Z,68.45
2019-03-22T01:40:30.600Z,68.47
2019-03-22T01:43:01.763Z,68.67
2019-03-22T01:45:34.925Z,68.60
2019-03-22T01:48:07.649Z,68.55
2019-03-22T01:50:38.951Z,68.46
2019-03-22T01:53:10.129Z,68.30
2019-03-22T01:55:41.242Z,68.58
2019-03-22T01:58:12.379Z,68.62
2019-03-22T02:00:44.774Z,68.70
2019-03-22T02:03:15.833Z,68.96
2019-03-22T02:05:47.028Z,69.07
2019-03-22T02:08:18.130Z,69.03
2019-03-22T02:10:49.236Z,68.82
2019-03-22T02:13:20.932Z,68.78
2019-03-22T02:15:52.410Z,68.45
2019-03-22T02:18:23.853Z,68.17
2019-03-22T02:20:55.229Z,68.25
2019-03-22T02:23:26.827Z,68.15
2019-03-22T02:25:58.047Z,68.04
2019-03-22T02:28:29.279Z,67.56
2019-03-22T02:31:01.311Z,67.51
2019-03-22T02:33:33.078Z,67.59
2019-03-22T02:36:04.446Z,67.58
2019-03-22T02:38:35.886Z,67.72
2019-03-22T02:41:07.745Z,67.91
2019-03-22T02:43:39.341Z,67.88
2019-03-22T02:46:11.158Z,67.88
2019-03-22T02:48:42.494Z,67.81
2019-03-22T02:51:13.731Z,67.64
2019-03-22T02:53:44.869Z,67.73
2019-03-22T02:56:16.125Z,67.78
2019-03-22T02:58:48.113Z,67.83
2019-03-22T03:01:20.904Z,67.91
2019-03-22T03:03:52.745Z,68.19
2019-03-22T03:06:24.100Z,68.11
2019-03-22T03:08:55.707Z,68.15
2019-03-22T03:11:27.080Z,68.39
2019-03-22T03:13:58.484Z,68.43
2019-03-22T03:16:30.124Z,68.33
2019-03-22T03:19:01.325Z,68.41
2019-03-22T03:21:32.457Z,68.36
2019-03-22T03:24:03.797Z,68.47
2019-03-22T03:26:35.011Z,68.38
2019-03-22T03:29:06.318Z,68.39
2019-03-22T03:31:37.413Z,68.61
2019-03-22T03:34:08.952Z,68.46
2019-03-22T03:36:41.022Z,68.41
2019-03-22T03:39:12.655Z,68.50
2019-03-22T03:41:48.125Z,68.51
2019-03-22T03:44:20.276Z,68.53
2019-03-22T03:46:52.127Z,68.30
2019-03-22T03:49:24.994Z,68.46
2019-03-22T03:51:56.210Z,68.56
2019-03-22T03:54:27.293Z,68.57
2019-03-22T03:56:59.445Z,68.34
2019-03-22T03:59:30.747Z,68.37
2019-03-22T04:02:03.526Z,68.39
2019-03-22T04:04:34.935Z,68.61
2019-03-22T04:07:06.529Z,68.71
2019-03-22T04:09:37.980Z,68.79
2019-03-22T04:12:09.649Z,69.13
2019-03-22T04:14:40.987Z,68.71
2019-03-22T04:17:12.444Z,68.83
2019-03-22T04:19:47.338Z,68.76
2019-03-22T04:22:20.529Z,68.87
2019-03-22T04:24:55.741Z,68.36
2019-03-22T04:27:29.136Z,68.08
2019-03-22T04:30:04.566Z,68.33
2019-03-22T04:32:49.550Z,68.18
2019-03-22T04:35:21.340Z,68.23
2019-03-22T04:37:54.064Z,68.09
2019-03-22T04:40:31.221Z,67.85
2019-03-22T04:43:04.750Z,67.51
2019-03-22T04:45:39.640Z,67.84
2019-03-22T04:48:30.851Z,67.50
2019-03-22T04:51:08.874Z,67.13
2019-03-22T04:53:46.742Z,67.45
2019-03-22T04:56:26.145Z,66.35
2019-03-22T04:59:00.537Z,65.68
2019-03-22T05:01:47.380Z,66.25
2019-03-22T05:04:21.503Z,66.42
2019-03-22T05:06:54.431Z,66.81
2019-03-22T05:09:27.735Z,66.55
2019-03-22T05:12:00.007Z,65.90
2019-03-22T05:14:32.373Z,66.52
2019-03-22T05:17:03.722Z,66.15
2019-03-22T05:19:37.294Z,66.51
2019-03-22T05:22:08.458Z,65.95
2019-03-22T05:24:40.566Z,66.22
2019-03-22T05:27:11.734Z,65.77
2019-03-22T05:29:44.557Z,66.14
2019-03-22T05:32:16.912Z,65.66
2019-03-22T05:34:48.786Z,65.50
2019-03-22T05:37:20.031Z,65.38
2019-03-22T05:39:52.187Z,65.34
2019-03-22T05:42:23.267Z,64.88
2019-03-22T05:44:54.944Z,64.66
2019-03-22T05:47:27.128Z,64.75
2019-03-22T05:49:59.910Z,64.49
2019-03-22T05:52:31.570Z,64.11
2019-03-22T05:55:02.925Z,63.29
2019-03-22T05:57:35.527Z,63.95
2019-03-22T06:00:08.532Z,63.38
2019-03-22T06:02:41.676Z,62.30
2019-03-22T06:05:14.554Z,61.72
2019-03-22T06:07:45.911Z,60.96
2019-03-22T06:10:18.562Z,60.38
2019-03-22T06:12:50.012Z,60.02
2019-03-22T06:15:22.318Z,59.75
2019-03-22T06:17:54.324Z,59.14
2019-03-22T06:20:25.791Z,59.13
2019-03-22T06:22:57.020Z,59.15
2019-03-22T06:25:29.445Z,58.81
2019-03-22T06:28:00.846Z,58.26
2019-03-22T06:30:33.282Z,58.60
2019-03-22T06:33:04.484Z,57.53
2019-03-22T06:35:35.684Z,57.23
2019-03-22T06:38:09.941Z,56.85
2019-03-22T06:40:41.672Z,56.19
2019-03-22T06:43:12.947Z,56.27
2019-03-22T06:45:44.395Z,55.40
2019-03-22T06:48:16.998Z,54.97
2019-03-22T06:50:48.715Z,53.95
2019-03-22T06:53:19.903Z,53.77
2019-03-22T06:55:51.248Z,52.67
2019-03-22T06:58:24.421Z,52.60
2019-03-22T07:00:56.102Z,52.47
2019-03-22T07:03:27.713Z,52.95
2019-03-22T07:06:01.464Z,52.60
2019-03-22T07:08:32.638Z,52.71
2019-03-22T07:11:04.345Z,52.30
2019-03-22T07:13:37.383Z,51.99
2019-03-22T07:16:08.713Z,51.77
2019-03-22T07:18:40.039Z,51.75
2019-03-22T07:21:11.281Z,51.96
2019-03-22T07:23:42.621Z,50.67
2019-03-22T07:26:15.145Z,50.61
2019-03-22T07:28:47.669Z,51.02
2019-03-22T07:31:21.343Z,51.07
2019-03-22T07:33:53.722Z,51.42
2019-03-22T07:36:25.271Z,51.24
2019-03-22T07:38:56.616Z,51.52
2019-03-22T07:41:30.102Z,52.17
2019-03-22T07:44:02.906Z,51.55
2019-03-22T07:46:34.286Z,51.06
2019-03-22T07:49:06.112Z,50.79
2019-03-22T07:51:38.375Z,49.99
2019-03-22T07:54:09.519Z,49.93
2019-03-22T07:56:40.799Z,50.11
2019-03-22T07:59:12.170Z,50.62
2019-03-22T08:01:43.664Z,49.71
2019-03-22T08:04:16.008Z,50.14
2019-03-22T08:06:51.732Z,50.18
2019-03-22T08:09:24.124Z,48.58
2019-03-22T08:11:56.831Z,47.58
2019-03-22T08:14:28.656Z,46.61
2019-03-22T08:16:59.877Z,46.05
2019-03-22T08:19:32.106Z,45.10
2019-03-22T08:22:04.641Z,44.71
2019-03-22T08:24:38.477Z,45.67
2019-03-22T08:27:13.663Z,45.87
2019-03-22T08:29:44.862Z,46.90
2019-03-22T08:32:16.070Z,46.31
2019-03-22T08:34:48.116Z,46.34
2019-03-22T08:37:19.363Z,45.40
2019-03-22T08:39:51.193Z,45.45
2019-03-22T08:42:22.425Z,45.30
2019-03-22T08:44:54.532Z,45.24
2019-03-22T08:47:33.619Z,44.54
2019-03-22T08:50:02.198Z,42.84
2019-03-22T08:52:33.612Z,42.42
2019-03-22T08:55:05.029Z,43.23
2019-03-22T08:57:36.361Z,43.05
2019-03-22T09:00:11.184Z,42.98
2019-03-22T09:02:42.569Z,42.16
2019-03-22T09:05:14.877Z,41.04
2019-03-22T09:07:57.116Z,41.05
2019-03-22T09:10:28.613Z,40.18
2019-03-22T09:13:01.086Z,39.35
2019-03-22T09:15:41.138Z,39.89
2019-03-22T09:18:08.207Z,40.07
2019-03-22T09:20:40.420Z,40.07
2019-03-22T09:23:11.840Z,40.07
2019-03-22T09:25:43.508Z,40.46
2019-03-22T09:28:15.368Z,41.12
2019-03-22T09:30:47.986Z,41.66
2019-03-22T09:33:19.297Z,42.65
2019-03-22T09:35:50.635Z,43.19
2019-03-22T09:38:22.505Z,43.61
2019-03-22T09:40:54.190Z,44.43
2019-03-22T09:43:25.554Z,44.98
2019-03-22T09:45:57.537Z,44.95
2019-03-22T09:48:28.791Z,44.92
2019-03-22T09:51:00.674Z,44.83
2019-03-22T09:53:32.117Z,44.71
2019-03-22T09:56:06.602Z,45.04
2019-03-22T09:58:37.880Z,44.65
2019-03-22T10:01:23.231Z,44.84
2019-03-22T10:03:45.590Z,45.01
2019-03-22T10:06:16.551Z,45.31
2019-03-22T10:08:48.733Z,45.37
2019-03-22T10:11:21.191Z,45.94
2019-03-22T10:13:52.864Z,45.69
2019-03-22T10:16:24.934Z,45.56
2019-03-22T10:18:57.095Z,45.96
2019-03-22T10:21:28.432Z,46.24
2019-03-22T10:23:59.937Z,46.82
2019-03-22T10:26:33.221Z,47.02
2019-03-22T10:29:06.904Z,47.06
2019-03-22T10:31:37.974Z,47.62
2019-03-22T10:34:10.434Z,47.82
2019-03-22T10:36:44.307Z,47.98
2019-03-22T10:39:17.540Z,47.97
2019-03-22T10:41:50.574Z,47.87
2019-03-22T10:44:23.668Z,48.17
2019-03-22T10:46:56.027Z,48.21
2019-03-22T10:49:27.973Z,48.25
2019-03-22T10:52:00.799Z,47.94
2019-03-22T10:54:32.207Z,47.42
2019-03-22T10:57:04.593Z,47.16
2019-03-22T10:59:41.231Z,47.20
2019-03-22T11:02:12.377Z,47.77
2019-03-22T11:04:45.131Z,46.97
2019-03-22T11:07:16.991Z,47.31
2019-03-22T11:09:49.288Z,47.58
2019-03-22T11:12:20.680Z,47.37
2019-03-22T11:14:52.466Z,47.34
2019-03-22T11:17:25.116Z,48.24
2019-03-22T11:19:58.171Z,49.35
2019-03-22T11:22:29.454Z,50.35
2019-03-22T11:25:01.141Z,50.61
2019-03-22T11:27:32.913Z,50.67
2019-03-22T11:30:10.813Z,51.14
2019-03-22T11:32:43.651Z,51.39
2019-03-22T11:35:16.171Z,51.33
2019-03-22T11:37:47.605Z,51.13
2019-03-22T11:40:19.249Z,51.41
2019-03-22T11:42:51.514Z,51.79
2019-03-22T11:45:24.703Z,51.77
2019-03-22T11:47:56.033Z,51.88
2019-03-22T11:50:29.031Z,51.67
2019-03-22T11:53:00.635Z,51.76
2019-03-22T11:55:32.129Z,51.61
2019-03-22T11:58:04.242Z,51.36
2019-03-22T12:00:36.701Z,51.21
2019-03-22T12:03:10.158Z,51.17
2019-03-22T12:05:41.484Z,52.00
2019-03-22T12:08:13.179Z,52.62
2019-03-22T12:10:45.377Z,53.02
2019-03-22T12:13:16.823Z,53.36
2019-03-22T12:15:49.836Z,53.81
2019-03-22T12:18:22.213Z,54.17
2019-03-22T12:20:53.603Z,55.07
2019-03-22T12:23:25.054Z,55.25
2019-03-22T12:25:56.537Z,54.88
2019-03-22T12:28:29.817Z,54.81
2019-03-22T12:31:01.332Z,54.91
2019-03-22T12:33:32.795Z,54.52
2019-03-22T12:36:04.488Z,54.61
2019-03-22T12:38:37.381Z,55.14
2019-03-22T12:41:09.509Z,55.10
2019-03-22T12:43:41.745Z,55.18
2019-03-22T12:46:13.977Z,55.91
2019-03-22T12:48:45.497Z,56.73
2019-03-22T12:51:18.807Z,56.83
2019-03-22T12:53:50.053Z,57.00
2019-03-22T12:56:22.763Z,57.19
2019-03-22T12:58:56.440Z,57.22
2019-03-22T13:01:29.757Z,57.48
2019-03-22T13:04:04.201Z,57.39
2019-03-22T13:06:36.301Z,57.16
2019-03-22T13:09:08.340Z,56.91
2019-03-22T13:11:41.462Z,56.79
2019-03-22T13:14:13.508Z,57.01
2019-03-22T13:16:48.049Z,57.25
2019-03-22T13:19:20.941Z,57.32
2019-03-22T13:21:52.730Z,57.36
2019-03-22T13:24:27.540Z,57.32
2019-03-22T13:26:59.375Z,57.24
2019-03-22T13:29:36.348Z,56.88
2019-03-22T13:32:09.231Z,56.88
2019-03-22T13:34:44.002Z,56.83
2019-03-22T13:37:15.843Z,57.07
2019-03-22T13:39:47.451Z,57.16
2019-03-22T13:42:22.414Z,57.55
2019-03-22T13:44:54.327Z,58.18
2019-03-22T13:47:29.371Z,59.84
2019-03-22T13:50:00.547Z,61.62
2019-03-22T13:52:31.745Z,62.79
2019-03-22T13:55:04.437Z,64.49
2019-03-22T13:57:38.662Z,66.65
2019-03-22T14:00:14.978Z,69.35
2019-03-22T14:02:47.443Z,71.14
2019-03-22T14:05:19.576Z,72.19
2019-03-22T14:07:50.897Z,72.93
2019-03-22T14:10:30.215Z,73.38
2019-03-22T14:13:03.375Z,72.78
2019-03-22T14:15:37.844Z,72.59
2019-03-22T14:18:12.016Z,72.31
2019-03-22T14:20:43.252Z,71.94
2019-03-22T14:23:14.399Z,72.08
2019-03-22T14:25:47.620Z,71.79
2019-03-22T14:28:18.997Z,71.35
2019-03-22T14:30:50.270Z,71.40
2019-03-22T14:33:21.740Z,71.08
2019-03-22T14:35:53.307Z,70.29
2019-03-22T14:38:24.683Z,69.55
2019-03-22T14:40:57.180Z,69.01
2019-03-22T14:43:28.507Z,69.41
2019-03-22T14:46:01.283Z,69.92
2019-03-22T14:48:32.556Z,70.41
2019-03-22T14:51:03.859Z,70.35
2019-03-22T14:53:35.378Z,70.46
2019-03-22T14:56:07.485Z,70.35
2019-03-22T14:58:38.766Z,70.44
2019-03-22T15:01:10.748Z,70.06
2019-03-22T15:03:43.159Z,70.19
2019-03-22T15:06:14.539Z,69.60
2019-03-22T15:08:46.541Z,69.46
2019-03-22T15:11:17.691Z,69.40
2019-03-22T15:13:51.668Z,69.20
2019-03-22T15:16:33.574Z,69.22
2019-03-22T15:19:22.531Z,69.49
2019-03-22T15:22:06.162Z,69.16
2019-03-22T15:24:47.376Z,69.27
2019-03-22T15:27:23.761Z,69.58
2019-03-22T15:30:10.794Z,69.53
2019-03-22T15:32:53.113Z,69.57
2019-03-22T15:35:42.711Z,69.58
2019-03-22T15:38:21.848Z,69.49
2019-03-22T15:40:56.626Z,69.63
2019-03-22T15:43:27.920Z,69.17
2019-03-22T15:45:59.490Z,68.77
2019-03-22T15:48:36.174Z,68.37
2019-03-22T15:51:08.541Z,68.24
2019-03-22T15:53:40.647Z,67.99
2019-03-22T15:56:15.441Z,67.77
2019-03-22T15:58:47.900Z,67.66
2019-03-22T16:01:21.661Z,67.02
2019-03-22T16:03:53.312Z,66.61
2019-03-22T16:06:26.395Z,66.56
2019-03-22T16:08:57.729Z,65.62
2019-03-22T16:11:28.942Z,69.02
2019-03-22T16:14:01.424Z,73.36
2019-03-22T16:16:32.678Z,73.79
2019-03-22T16:19:03.868Z,74.91
2019-03-22T16:21:34.988Z,75.66
2019-03-22T16:24:06.315Z,75.76
2019-03-22T16:26:37.680Z,76.29
2019-03-22T16:29:10.763Z,76.65
2019-03-22T16:31:41.861Z,76.87
2019-03-22T16:34:13.155Z,76.68
2019-03-22T16:36:47.394Z,76.62
2019-03-22T16:39:18.553Z,76.38
2019-03-22T16:41:49.758Z,76.43
2019-03-22T16:44:21.155Z,76.68
2019-03-22T16:46:52.324Z,76.85
2019-03-22T16:49:23.511Z,76.42
2019-03-22T16:51:56.849Z,76.74
2019-03-22T16:54:28.049Z,77.12
2019-03-22T16:57:01.791Z,77.27
2019-03-22T16:59:33.934Z,77.56
2019-03-22T17:02:06.134Z,77.49
2019-03-22T17:04:38.184Z,77.38
2019-03-22T17:07:09.482Z,77.64
2019-03-22T17:09:40.808Z,77.61
2019-03-22T17:12:11.915Z,77.38
2019-03-22T17:14:44.060Z,77.36
2019-03-22T17:17:16.321Z,77.57
2019-03-22T17:19:47.690Z,77.23
2019-03-22T17:22:24.407Z,77.28
2019-03-22T17:24:55.583Z,76.89
2019-03-22T17:27:26.794Z,77.18
2019-03-22T17:29:57.833Z,77.07
2019-03-22T17:32:29.071Z,76.97
2019-03-22T17:35:00.114Z,77.05
2019-03-22T17:37:31.311Z,77.18
2019-03-22T17:40:06.610Z,76.93
2019-03-22T17:42:39.114Z,77.55
2019-03-22T17:45:16.350Z,77.68
2019-03-22T17:47:49.358Z,77.68
2019-03-22T17:50:22.282Z,77.48
2019-03-22T17:52:57.356Z,77.43
2019-03-22T17:55:28.564Z,77.65
2019-03-22T17:58:03.447Z,77.92
2019-03-22T18:00:36.499Z,78.18
2019-03-22T18:03:12.585Z,78.15
2019-03-22T18:05:44.848Z,78.16
2019-03-22T18:08:18.153Z,78.14
2019-03-22T18:10:50.214Z,78.22
2019-03-22T18:13:21.320Z,78.21
2019-03-22T18:15:54.768Z,78.20
2019-03-22T18:18:26.938Z,77.95
2019-03-22T18:20:58.581Z,77.61
2019-03-22T18:23:35.703Z,77.53
2019-03-22T18:26:03.039Z,77.25
2019-03-22T18:28:34.126Z,77.01
2019-03-22T18:31:05.191Z,76.84
2019-03-22T18:33:36.396Z,76.22
2019-03-22T18:36:08.190Z,75.55
2019-03-22T18:38:39.521Z,75.13
2019-03-22T18:41:10.994Z,74.35
2019-03-22T18:43:42.255Z,73.76
2019-03-22T18:46:13.516Z,73.71
2019-03-22T18:48:44.595Z,73.62
2019-03-22T18:51:15.724Z,73.49
2019-03-22T18:53:46.825Z,73.61
2019-03-22T18:56:18.612Z,73.65
2019-03-22T18:58:49.883Z,73.86
2019-03-22T19:01:21.246Z,74.00
2019-03-22T19:03:54.248Z,74.09
2019-03-22T19:06:25.367Z,74.47
2019-03-22T19:08:57.269Z,74.46
2019-03-22T19:11:28.514Z,74.63
2019-03-22T19:13:59.815Z,75.12
2019-03-22T19:16:32.302Z,74.88
2019-03-22T19:19:04.645Z,75.05
2019-03-22T19:21:36.425Z,74.96
2019-03-22T19:24:07.568Z,75.01
2019-03-22T19:26:39.540Z,75.08
2019-03-22T19:29:11.607Z,74.74
2019-03-22T19:31:42.703Z,74.31
2019-03-22T19:34:13.935Z,74.06
2019-03-22T19:36:47.023Z,73.92
2019-03-22T19:39:18.286Z,73.43
2019-03-22T19:41:50.726Z,73.40
2019-03-22T19:44:21.872Z,73.42
2019-03-22T19:46:52.946Z,73.58
2019-03-22T19:49:24.223Z,73.79
2019-03-22T19:51:55.362Z,73.75
2019-03-22T19:54:26.526Z,73.98
2019-03-22T19:56:57.855Z,73.79
2019-03-22T19:59:29.251Z,73.56
2019-03-22T20:02:00.755Z,73.78
2019-03-22T20:04:32.310Z,73.77
2019-03-22T20:07:03.576Z,73.55
2019-03-22T20:09:34.805Z,73.44
2019-03-22T20:12:06.057Z,73.45
2019-03-22T20:14:37.326Z,73.28
2019-03-22T20:17:09.676Z,73.16
2019-03-22T20:19:41.025Z,73.07
2019-03-22T20:22:12.304Z,72.87
2019-03-22T20:24:44.453Z,73.12
2019-03-22T20:27:15.472Z,73.04
2019-03-22T20:29:46.561Z,72.71
2019-03-22T20:32:17.872Z,72.45
2019-03-22T20:34:49.123Z,72.37
2019-03-22T20:37:20.478Z,72.27
2019-03-22T20:39:52.748Z,72.32
2019-03-22T20:42:24.097Z,72.32
2019-03-22T20:44:55.248Z,72.22
2019-03-22T20:47:26.614Z,72.43
2019-03-22T20:49:57.935Z,72.64
2019-03-22T20:52:29.173Z,72.79
2019-03-22T20:55:00.636Z,72.49
2019-03-22T20:57:32.037Z,72.05
2019-03-22T21:00:05.465Z,70.91
2019-03-22T21:02:37.104Z,70.77
2019-03-22T21:05:08.600Z,71.08
2019-03-22T21:07:39.616Z,71.24
2019-03-22T21:10:10.885Z,71.39
2019-03-22T21:12:42.231Z,71.19
2019-03-22T21:15:23.864Z,70.57
2019-03-22T21:17:49.118Z,70.28
2019-03-22T21:20:20.160Z,70.20
2019-03-22T21:22:51.253Z,70.24
2019-03-22T21:25:22.498Z,69.91
2019-03-22T21:27:55.548Z,70.07
2019-03-22T21:30:26.675Z,69.55
2019-03-22T21:32:57.676Z,69.21
2019-03-22T21:35:37.249Z,68.68
2019-03-22T21:38:10.338Z,68.17
2019-03-22T21:40:35.115Z,68.56
2019-03-22T21:43:06.647Z,69.10
2019-03-22T21:45:37.767Z,69.20
2019-03-22T21:48:09.399Z,69.53
2019-03-22T21:50:40.688Z,70.22
2019-03-22T21:53:11.718Z,70.92
2019-03-22T21:55:49.755Z,71.26
2019-03-22T21:58:21.305Z,71.44
2019-03-22T22:00:52.993Z,71.89
2019-03-22T22:03:25.232Z,72.11
2019-03-22T22:05:58.735Z,72.37
2019-03-22T22:08:32.431Z,72.46
2019-03-22T22:11:05.261Z,72.48
2019-03-22T22:13:38.147Z,72.50
2019-03-22T22:16:09.317Z,72.55
2019-03-22T22:18:41.897Z,72.59
2019-03-22T22:21:13.064Z,72.92
2019-03-22T22:23:44.490Z,73.35
2019-03-22T22:26:15.759Z,73.55
2019-03-22T22:28:47.053Z,73.68
2019-03-22T22:31:18.110Z,73.80
2019-03-22T22:33:49.146Z,74.18
2019-03-22T22:36:20.939Z,74.32
2019-03-22T22:38:52.091Z,74.36
2019-03-22T22:41:23.584Z,74.07
2019-03-22T22:43:54.645Z,73.86
2019-03-22T22:46:25.681Z,73.45
2019-03-22T22:48:56.810Z,73.50
2019-03-22T22:51:28.011Z,73.37
2019-03-22T22:53:59.096Z,73.25
2019-03-22T22:56:31.450Z,72.57
2019-03-22T22:59:02.769Z,72.49
2019-03-22T23:01:33.790Z,71.58
2019-03-22T23:04:06.296Z,71.03
2019-03-22T23:06:37.582Z,70.99
2019-03-22T23:09:10.502Z,70.61
2019-03-22T23:11:41.678Z,70.14
2019-03-22T23:14:12.854Z,69.67
2019-03-22T23:16:43.923Z,68.66
2019-03-22T23:19:16.788Z,68.13
2019-03-22T23:21:47.836Z,67.83
2019-03-22T23:24:18.831Z,67.24
2019-03-22T23:26:49.877Z,66.69
2019-03-22T23:29:21.043Z,65.00
2019-03-22T23:31:53.145Z,63.86
2019-03-22T23:34:25.817Z,63.36
2019-03-22T23:36:56.948Z,62.77
2019-03-22T23:39:27.925Z,62.10
2019-03-22T23:41:59.644Z,62.42
2019-03-22T23:44:30.753Z,61.98
2019-03-22T23:47:02.109Z,61.53
2019-03-22T23:49:33.287Z,60.91
2019-03-22T23:52:04.500Z,61.20
2019-03-22T23:54:36.668Z,60.83
2019-03-22T23:57:07.951Z,61.43
2019-03-22T23:59:39.019Z,61.09
